KHII Airport (Lake Havasu City) Information

FAA: HII - ICAO: KHII

KHII Airport Location

State Arizona
County Mohave
City Lake Havasu City
KHII Airport is 6 miles north of Lake Havasu City, AZ.
Latitude 34-34-16.0460N
Longitude 114-21-29.7970W
Elevation 782ft

KHII Airport METARs

METAR KHII 301835Z AUTO 30009KT 10SM CLR 22/M04 A3010 RMK AO2
Altimeter 30.10"
Temperature 22.0°C (71.6°F)
Wind 300° at 9KT
Clouds Skies are clear.
Visibility 10.0mi
Time observed: 2021-11-30T18:35:00Z

KHII Airport Details

Status Operational
Activation May 1991
Ownership Public
Usage Public
Chart PHOENIX
ATC on-site No
Beacon schedule sunset-sunrise
Beacon color clear green

KHII Airport Contacts

Owner LAKE HAVASU CITY
Owner address 2330 N. MC CULLOCH, LAKE HAVASU CITY, AZ 86403
Owner phone 928-764-3330
Manager RAYMOND POWELL
Manager address 3537 WINIFRED WAY, LAKE HAVASU CITY, AZ 86404
Manager phone 928-764-2506

KHII Airport (Lake Havasu City) Radio Frequencies

KHII (Airport) Radio Frequencies

UNICOM 122.7
Common traffic advisory frequency (CTAF) 122.7